sensor_id;sensor_type;location;lat;lon;timestamp;temperature;humidity
1958;DHT22;979;51.076;13.748;2023-02-28T00:02:07;3.80;62.40
1958;DHT22;979;51.076;13.748;2023-02-28T00:05:19;3.80;62.30
1958;DHT22;979;51.076;13.748;2023-02-28T00:07:54;3.80;61.90
1958;DHT22;979;51.076;13.748;2023-02-28T00:10:29;3.80;62.00
1958;DHT22;979;51.076;13.748;2023-02-28T00:13:05;3.80;61.90
1958;DHT22;979;51.076;13.748;2023-02-28T00:15:37;3.80;62.20
1958;DHT22;979;51.076;13.748;2023-02-28T00:18:09;3.80;62.30
1958;DHT22;979;51.076;13.748;2023-02-28T00:20:41;3.70;61.70
1958;DHT22;979;51.076;13.748;2023-02-28T00:23:11;3.70;61.70
1958;DHT22;979;51.076;13.748;2023-02-28T00:25:41;3.70;61.70
1958;DHT22;979;51.076;13.748;2023-02-28T00:28:09;3.60;61.70
1958;DHT22;979;51.076;13.748;2023-02-28T00:30:38;3.60;61.70
1958;DHT22;979;51.076;13.748;2023-02-28T00:33:09;3.60;61.70
1958;DHT22;979;51.076;13.748;2023-02-28T00:35:45;3.60;62.00
1958;DHT22;979;51.076;13.748;2023-02-28T00:38:28;3.50;61.80
1958;DHT22;979;51.076;13.748;2023-02-28T00:41:06;3.70;62.70
1958;DHT22;979;51.076;13.748;2023-02-28T00:43:40;3.50;62.00
1958;DHT22;979;51.076;13.748;2023-02-28T00:46:14;3.70;62.20
1958;DHT22;979;51.076;13.748;2023-02-28T00:48:46;3.50;62.10
1958;DHT22;979;51.076;13.748;2023-02-28T00:51:29;3.40;62.00
1958;DHT22;979;51.076;13.748;2023-02-28T00:54:04;3.50;62.30
1958;DHT22;979;51.076;13.748;2023-02-28T00:56:43;3.30;61.90
1958;DHT22;979;51.076;13.748;2023-02-28T00:59:22;3.30;62.10
1958;DHT22;979;51.076;13.748;2023-02-28T01:02:00;3.40;62.10
1958;DHT22;979;51.076;13.748;2023-02-28T01:04:31;3.40;61.90
1958;DHT22;979;51.076;13.748;2023-02-28T01:07:00;3.30;61.80
1958;DHT22;979;51.076;13.748;2023-02-28T01:09:29;3.30;61.70
1958;DHT22;979;51.076;13.748;2023-02-28T01:11:59;3.30;61.70
1958;DHT22;979;51.076;13.748;2023-02-28T01:14:29;3.40;61.80
1958;DHT22;979;51.076;13.748;2023-02-28T01:16:58;3.40;61.90
1958;DHT22;979;51.076;13.748;2023-02-28T01:19:26;3.30;61.80
1958;DHT22;979;51.076;13.748;2023-02-28T01:21:54;3.40;61.90
1958;DHT22;979;51.076;13.748;2023-02-28T01:24:23;3.30;61.80
1958;DHT22;979;51.076;13.748;2023-02-28T01:26:51;3.40;61.90
1958;DHT22;979;51.076;13.748;2023-02-28T01:29:22;3.40;61.90
1958;DHT22;979;51.076;13.748;2023-02-28T01:31:52;3.40;61.90
1958;DHT22;979;51.076;13.748;2023-02-28T01:34:20;3.40;62.00
1958;DHT22;979;51.076;13.748;2023-02-28T01:36:50;3.40;62.30
1958;DHT22;979;51.076;13.748;2023-02-28T01:39:19;3.40;61.90
1958;DHT22;979;51.076;13.748;2023-02-28T01:41:50;3.30;61.90
1958;DHT22;979;51.076;13.748;2023-02-28T01:47:42;3.30;61.80
1958;DHT22;979;51.076;13.748;2023-02-28T01:50:14;3.40;62.00
1958;DHT22;979;51.076;13.748;2023-02-28T01:52:45;3.20;61.90
1958;DHT22;979;51.076;13.748;2023-02-28T01:55:15;3.20;61.90
1958;DHT22;979;51.076;13.748;2023-02-28T01:57:48;3.40;62.00
1958;DHT22;979;51.076;13.748;2023-02-28T02:00:23;3.20;61.90
1958;DHT22;979;51.076;13.748;2023-02-28T02:02:58;3.20;62.10
1958;DHT22;979;51.076;13.748;2023-02-28T02:05:34;3.10;62.10
1958;DHT22;979;51.076;13.748;2023-02-28T02:08:11;3.10;61.80
1958;DHT22;979;51.076;13.748;2023-02-28T02:10:42;3.20;62.10
1958;DHT22;979;51.076;13.748;2023-02-28T02:13:24;3.00;62.00
1958;DHT22;979;51.076;13.748;2023-02-28T02:16:02;3.00;62.00
1958;DHT22;979;51.076;13.748;2023-02-28T02:18:39;3.10;62.10
1958;DHT22;979;51.076;13.748;2023-02-28T02:24:54;2.90;61.90
1958;DHT22;979;51.076;13.748;2023-02-28T02:27:45;2.90;61.90
1958;DHT22;979;51.076;13.748;2023-02-28T02:30:33;3.00;62.10
1958;DHT22;979;51.076;13.748;2023-02-28T02:33:47;2.90;61.90
1958;DHT22;979;51.076;13.748;2023-02-28T02:36:22;2.90;62.00
1958;DHT22;979;51.076;13.748;2023-02-28T02:38:58;2.90;62.00
1958;DHT22;979;51.076;13.748;2023-02-28T02:41:37;2.90;62.00
1958;DHT22;979;51.076;13.748;2023-02-28T02:44:13;2.90;62.10
1958;DHT22;979;51.076;13.748;2023-02-28T02:46:49;2.90;62.10
1958;DHT22;979;51.076;13.748;2023-02-28T02:49:31;2.80;62.20
1958;DHT22;979;51.076;13.748;2023-02-28T02:52:05;2.80;62.10
1958;DHT22;979;51.076;13.748;2023-02-28T02:54:37;2.80;62.20
1958;DHT22;979;51.076;13.748;2023-02-28T02:57:09;2.80;62.10
1958;DHT22;979;51.076;13.748;2023-02-28T02:59:40;2.80;62.10
1958;DHT22;979;51.076;13.748;2023-02-28T03:02:12;2.80;62.20
1958;DHT22;979;51.076;13.748;2023-02-28T03:04:45;2.80;62.20
1958;DHT22;979;51.076;13.748;2023-02-28T03:07:17;2.70;62.20
1958;DHT22;979;51.076;13.748;2023-02-28T03:09:51;2.70;62.20
1958;DHT22;979;51.076;13.748;2023-02-28T03:12:26;2.70;62.20
1958;DHT22;979;51.076;13.748;2023-02-28T03:15:02;2.70;62.10
1958;DHT22;979;51.076;13.748;2023-02-28T03:17:53;2.70;62.20
1958;DHT22;979;51.076;13.748;2023-02-28T03:20:32;2.60;62.10
1958;DHT22;979;51.076;13.748;2023-02-28T03:23:17;2.50;62.00
1958;DHT22;979;51.076;13.748;2023-02-28T03:25:55;2.50;62.10
1958;DHT22;979;51.076;13.748;2023-02-28T03:28:32;2.40;62.10
1958;DHT22;979;51.076;13.748;2023-02-28T03:31:14;2.40;62.40
1958;DHT22;979;51.076;13.748;2023-02-28T03:33:54;2.40;62.40
1958;DHT22;979;51.076;13.748;2023-02-28T03:36:35;2.30;62.30
1958;DHT22;979;51.076;13.748;2023-02-28T03:39:19;2.20;62.20
1958;DHT22;979;51.076;13.748;2023-02-28T03:42:01;2.10;62.30
1958;DHT22;979;51.076;13.748;2023-02-28T03:44:39;2.10;62.10
1958;DHT22;979;51.076;13.748;2023-02-28T03:47:16;2.20;62.40
1958;DHT22;979;51.076;13.748;2023-02-28T03:49:54;2.00;62.10
1958;DHT22;979;51.076;13.748;2023-02-28T03:52:47;1.90;62.10
1958;DHT22;979;51.076;13.748;2023-02-28T03:55:40;1.80;62.00
1958;DHT22;979;51.076;13.748;2023-02-28T03:58:21;2.00;62.30
1958;DHT22;979;51.076;13.748;2023-02-28T04:01:02;1.70;62.00
1958;DHT22;979;51.076;13.748;2023-02-28T04:03:47;1.70;62.30
1958;DHT22;979;51.076;13.748;2023-02-28T04:06:22;1.80;62.50
1958;DHT22;979;51.076;13.748;2023-02-28T04:08:59;1.50;62.10
1958;DHT22;979;51.076;13.748;2023-02-28T04:11:42;1.50;62.10
1958;DHT22;979;51.076;13.748;2023-02-28T04:14:12;1.60;62.40
1958;DHT22;979;51.076;13.748;2023-02-28T04:16:41;1.50;62.20
1958;DHT22;979;51.076;13.748;2023-02-28T04:19:13;1.50;62.20
1958;DHT22;979;51.076;13.748;2023-02-28T04:21:44;1.30;62.20
1958;DHT22;979;51.076;13.748;2023-02-28T04:24:14;1.40;63.00
1958;DHT22;979;51.076;13.748;2023-02-28T04:26:46;1.20;62.00
1958;DHT22;979;51.076;13.748;2023-02-28T04:29:20;1.20;62.00
1958;DHT22;979;51.076;13.748;2023-02-28T04:31:49;1.10;62.00
1958;DHT22;979;51.076;13.748;2023-02-28T04:34:22;1.10;62.10
1958;DHT22;979;51.076;13.748;2023-02-28T04:36:52;1.00;62.00
1958;DHT22;979;51.076;13.748;2023-02-28T04:39:38;1.10;62.20
1958;DHT22;979;51.076;13.748;2023-02-28T04:42:08;0.90;62.70
1958;DHT22;979;51.076;13.748;2023-02-28T04:44:37;0.80;62.00
1958;DHT22;979;51.076;13.748;2023-02-28T04:47:05;0.80;62.20
1958;DHT22;979;51.076;13.748;2023-02-28T04:49:34;0.80;62.20
1958;DHT22;979;51.076;13.748;2023-02-28T04:52:02;0.70;62.10
1958;DHT22;979;51.076;13.748;2023-02-28T04:54:30;0.60;62.10
1958;DHT22;979;51.076;13.748;2023-02-28T04:57:02;0.60;62.20
1958;DHT22;979;51.076;13.748;2023-02-28T04:59:52;0.50;62.20
1958;DHT22;979;51.076;13.748;2023-02-28T05:02:28;0.50;62.50
1958;DHT22;979;51.076;13.748;2023-02-28T05:05:18;0.40;62.50
1958;DHT22;979;51.076;13.748;2023-02-28T05:07:58;0.50;62.40
1958;DHT22;979;51.076;13.748;2023-02-28T05:10:32;0.40;62.40
1958;DHT22;979;51.076;13.748;2023-02-28T05:13:31;0.40;62.60
1958;DHT22;979;51.076;13.748;2023-02-28T05:16:07;0.40;62.60
1958;DHT22;979;51.076;13.748;2023-02-28T05:18:39;0.50;62.80
1958;DHT22;979;51.076;13.748;2023-02-28T05:21:27;0.30;62.50
1958;DHT22;979;51.076;13.748;2023-02-28T05:23:58;0.30;62.40
1958;DHT22;979;51.076;13.748;2023-02-28T05:26:27;0.10;62.30
1958;DHT22;979;51.076;13.748;2023-02-28T05:28:56;0.20;62.50
1958;DHT22;979;51.076;13.748;2023-02-28T05:31:25;0.10;62.60
1958;DHT22;979;51.076;13.748;2023-02-28T05:33:55;0.20;62.50
1958;DHT22;979;51.076;13.748;2023-02-28T05:36:24;0.30;62.80
1958;DHT22;979;51.076;13.748;2023-02-28T05:38:54;0.10;62.50
1958;DHT22;979;51.076;13.748;2023-02-28T05:41:29;0.30;62.80
1958;DHT22;979;51.076;13.748;2023-02-28T05:44:09;0.10;63.50
1958;DHT22;979;51.076;13.748;2023-02-28T05:46:39;0.30;62.80
1958;DHT22;979;51.076;13.748;2023-02-28T05:49:08;0.20;62.80
1958;DHT22;979;51.076;13.748;2023-02-28T05:51:36;0.00;62.70
1958;DHT22;979;51.076;13.748;2023-02-28T05:54:07;0.10;62.80
1958;DHT22;979;51.076;13.748;2023-02-28T05:56:40;0.10;62.80
1958;DHT22;979;51.076;13.748;2023-02-28T05:59:11;0.30;63.00
1958;DHT22;979;51.076;13.748;2023-02-28T06:01:42;0.00;62.90
1958;DHT22;979;51.076;13.748;2023-02-28T06:04:18;0.20;63.80
1958;DHT22;979;51.076;13.748;2023-02-28T06:06:58;0.30;64.70
1958;DHT22;979;51.076;13.748;2023-02-28T06:09:26;0.30;64.20
1958;DHT22;979;51.076;13.748;2023-02-28T06:11:57;0.50;64.20
1958;DHT22;979;51.076;13.748;2023-02-28T06:14:25;0.30;63.90
1958;DHT22;979;51.076;13.748;2023-02-28T06:16:55;0.40;64.10
1958;DHT22;979;51.076;13.748;2023-02-28T06:19:25;0.40;64.40
1958;DHT22;979;51.076;13.748;2023-02-28T06:21:55;0.40;64.50
1958;DHT22;979;51.076;13.748;2023-02-28T06:24:25;0.70;65.00
1958;DHT22;979;51.076;13.748;2023-02-28T06:26:55;0.60;65.00
1958;DHT22;979;51.076;13.748;2023-02-28T06:29:33;0.60;65.20
1958;DHT22;979;51.076;13.748;2023-02-28T06:32:03;0.70;65.00
1958;DHT22;979;51.076;13.748;2023-02-28T06:34:31;0.60;64.80
1958;DHT22;979;51.076;13.748;2023-02-28T06:37:00;0.70;64.90
1958;DHT22;979;51.076;13.748;2023-02-28T06:39:29;0.70;65.00
1958;DHT22;979;51.076;13.748;2023-02-28T06:41:57;0.90;65.50
1958;DHT22;979;51.076;13.748;2023-02-28T06:44:26;1.00;65.50
1958;DHT22;979;51.076;13.748;2023-02-28T06:47:00;0.90;65.90
1958;DHT22;979;51.076;13.748;2023-02-28T06:49:32;1.10;65.70
1958;DHT22;979;51.076;13.748;2023-02-28T06:52:03;1.00;65.90
1958;DHT22;979;51.076;13.748;2023-02-28T06:54:48;1.10;65.80
1958;DHT22;979;51.076;13.748;2023-02-28T06:57:28;1.10;65.90
1958;DHT22;979;51.076;13.748;2023-02-28T06:59:58;1.10;65.60
1958;DHT22;979;51.076;13.748;2023-02-28T07:02:27;1.10;65.50
1958;DHT22;979;51.076;13.748;2023-02-28T07:04:57;1.20;65.90
1958;DHT22;979;51.076;13.748;2023-02-28T07:07:25;1.30;66.10
1958;DHT22;979;51.076;13.748;2023-02-28T07:09:53;1.50;67.00
1958;DHT22;979;51.076;13.748;2023-02-28T07:12:22;1.60;66.40
1958;DHT22;979;51.076;13.748;2023-02-28T07:14:50;1.80;66.30
1958;DHT22;979;51.076;13.748;2023-02-28T07:17:18;1.90;66.00
1958;DHT22;979;51.076;13.748;2023-02-28T07:19:47;2.10;66.10
1958;DHT22;979;51.076;13.748;2023-02-28T07:22:16;2.30;66.00
1958;DHT22;979;51.076;13.748;2023-02-28T07:24:47;2.40;66.10
1958;DHT22;979;51.076;13.748;2023-02-28T07:27:15;2.30;65.60
1958;DHT22;979;51.076;13.748;2023-02-28T07:29:52;2.40;65.40
1958;DHT22;979;51.076;13.748;2023-02-28T07:32:21;2.60;65.40
1958;DHT22;979;51.076;13.748;2023-02-28T07:34:49;2.40;65.10
1958;DHT22;979;51.076;13.748;2023-02-28T07:37:20;2.40;65.10
1958;DHT22;979;51.076;13.748;2023-02-28T07:39:51;2.40;65.20
1958;DHT22;979;51.076;13.748;2023-02-28T07:42:19;2.60;65.40
1958;DHT22;979;51.076;13.748;2023-02-28T07:44:49;2.50;65.30
1958;DHT22;979;51.076;13.748;2023-02-28T07:47:19;2.60;65.30
1958;DHT22;979;51.076;13.748;2023-02-28T07:49:48;2.40;65.00
1958;DHT22;979;51.076;13.748;2023-02-28T07:52:18;2.60;65.10
1958;DHT22;979;51.076;13.748;2023-02-28T07:54:46;2.70;65.10
1958;DHT22;979;51.076;13.748;2023-02-28T07:57:15;2.80;65.30
1958;DHT22;979;51.076;13.748;2023-02-28T07:59:43;2.80;65.30
1958;DHT22;979;51.076;13.748;2023-02-28T08:02:13;3.00;65.50
1958;DHT22;979;51.076;13.748;2023-02-28T08:04:42;3.10;65.30
1958;DHT22;979;51.076;13.748;2023-02-28T08:07:12;3.20;65.30
1958;DHT22;979;51.076;13.748;2023-02-28T08:09:44;3.30;65.30
1958;DHT22;979;51.076;13.748;2023-02-28T08:12:12;3.50;65.20
1958;DHT22;979;51.076;13.748;2023-02-28T08:14:41;3.70;65.40
1958;DHT22;979;51.076;13.748;2023-02-28T08:17:13;3.80;65.30
1958;DHT22;979;51.076;13.748;2023-02-28T08:19:46;4.00;65.40
1958;DHT22;979;51.076;13.748;2023-02-28T08:22:15;4.20;65.40
1958;DHT22;979;51.076;13.748;2023-02-28T08:24:47;4.50;65.50
1958;DHT22;979;51.076;13.748;2023-02-28T08:27:16;4.40;65.20
1958;DHT22;979;51.076;13.748;2023-02-28T08:29:45;4.50;65.00
1958;DHT22;979;51.076;13.748;2023-02-28T08:32:14;4.60;64.90
1958;DHT22;979;51.076;13.748;2023-02-28T08:34:56;4.70;65.00
1958;DHT22;979;51.076;13.748;2023-02-28T08:37:24;5.00;65.20
1958;DHT22;979;51.076;13.748;2023-02-28T08:39:54;5.00;65.00
1958;DHT22;979;51.076;13.748;2023-02-28T08:42:22;5.10;64.60
1958;DHT22;979;51.076;13.748;2023-02-28T08:44:51;5.20;64.40
1958;DHT22;979;51.076;13.748;2023-02-28T08:47:20;5.20;64.30
1958;DHT22;979;51.076;13.748;2023-02-28T08:49:48;5.30;65.00
1958;DHT22;979;51.076;13.748;2023-02-28T08:52:16;5.40;64.20
1958;DHT22;979;51.076;13.748;2023-02-28T08:54:45;5.40;64.20
1958;DHT22;979;51.076;13.748;2023-02-28T08:57:14;5.60;64.20
1958;DHT22;979;51.076;13.748;2023-02-28T08:59:43;5.80;64.20
1958;DHT22;979;51.076;13.748;2023-02-28T09:02:14;5.80;64.10
1958;DHT22;979;51.076;13.748;2023-02-28T09:04:42;5.80;63.70
1958;DHT22;979;51.076;13.748;2023-02-28T09:07:12;6.20;64.60
1958;DHT22;979;51.076;13.748;2023-02-28T09:09:40;6.30;63.60
1958;DHT22;979;51.076;13.748;2023-02-28T09:12:26;6.20;63.50
1958;DHT22;979;51.076;13.748;2023-02-28T09:14:54;6.30;63.10
1958;DHT22;979;51.076;13.748;2023-02-28T09:17:23;6.30;62.90
1958;DHT22;979;51.076;13.748;2023-02-28T09:19:57;6.40;62.60
1958;DHT22;979;51.076;13.748;2023-02-28T09:22:25;6.40;62.40
1958;DHT22;979;51.076;13.748;2023-02-28T09:24:53;6.40;62.20
1958;DHT22;979;51.076;13.748;2023-02-28T09:27:23;6.50;61.70
1958;DHT22;979;51.076;13.748;2023-02-28T09:29:52;6.40;60.90
1958;DHT22;979;51.076;13.748;2023-02-28T09:32:20;6.30;60.30
1958;DHT22;979;51.076;13.748;2023-02-28T09:34:48;6.20;60.00
1958;DHT22;979;51.076;13.748;2023-02-28T09:37:17;6.20;60.50
1958;DHT22;979;51.076;13.748;2023-02-28T09:39:46;6.20;60.40
1958;DHT22;979;51.076;13.748;2023-02-28T09:42:21;6.20;60.00
1958;DHT22;979;51.076;13.748;2023-02-28T09:44:53;6.10;59.70
1958;DHT22;979;51.076;13.748;2023-02-28T09:47:28;6.10;59.70
1958;DHT22;979;51.076;13.748;2023-02-28T09:50:03;6.10;59.50
1958;DHT22;979;51.076;13.748;2023-02-28T09:52:34;6.30;59.70
1958;DHT22;979;51.076;13.748;2023-02-28T09:55:19;6.20;59.60
1958;DHT22;979;51.076;13.748;2023-02-28T09:57:48;6.20;59.50
1958;DHT22;979;51.076;13.748;2023-02-28T10:00:23;6.20;58.50
1958;DHT22;979;51.076;13.748;2023-02-28T10:03:09;6.10;57.40
1958;DHT22;979;51.076;13.748;2023-02-28T10:05:41;5.90;56.80
1958;DHT22;979;51.076;13.748;2023-02-28T10:08:13;5.80;57.10
1958;DHT22;979;51.076;13.748;2023-02-28T10:10:48;5.80;57.20
1958;DHT22;979;51.076;13.748;2023-02-28T10:13:22;5.80;57.50
1958;DHT22;979;51.076;13.748;2023-02-28T10:15:56;5.80;57.50
1958;DHT22;979;51.076;13.748;2023-02-28T10:18:43;5.90;57.30
1958;DHT22;979;51.076;13.748;2023-02-28T10:21:21;5.90;57.10
1958;DHT22;979;51.076;13.748;2023-02-28T10:23:55;5.90;57.00
1958;DHT22;979;51.076;13.748;2023-02-28T10:26:28;6.00;57.20
1958;DHT22;979;51.076;13.748;2023-02-28T10:28:58;6.00;57.20
1958;DHT22;979;51.076;13.748;2023-02-28T10:31:28;6.10;57.40
1958;DHT22;979;51.076;13.748;2023-02-28T10:33:57;6.30;57.00
1958;DHT22;979;51.076;13.748;2023-02-28T10:36:25;6.30;57.40
1958;DHT22;979;51.076;13.748;2023-02-28T10:38:56;6.40;57.20
1958;DHT22;979;51.076;13.748;2023-02-28T10:41:29;6.40;56.70
1958;DHT22;979;51.076;13.748;2023-02-28T10:44:14;6.40;56.70
1958;DHT22;979;51.076;13.748;2023-02-28T10:46:54;6.50;56.80
1958;DHT22;979;51.076;13.748;2023-02-28T10:49:25;6.70;56.70
1958;DHT22;979;51.076;13.748;2023-02-28T10:51:55;6.60;55.90
1958;DHT22;979;51.076;13.748;2023-02-28T10:54:28;6.70;55.80
1958;DHT22;979;51.076;13.748;2023-02-28T10:57:11;6.70;56.10
1958;DHT22;979;51.076;13.748;2023-02-28T10:59:45;6.70;55.90
1958;DHT22;979;51.076;13.748;2023-02-28T11:02:35;6.80;55.90
1958;DHT22;979;51.076;13.748;2023-02-28T11:05:26;6.90;55.70
1958;DHT22;979;51.076;13.748;2023-02-28T11:08:05;6.90;55.50
1958;DHT22;979;51.076;13.748;2023-02-28T11:10:34;7.00;55.30
1958;DHT22;979;51.076;13.748;2023-02-28T11:13:02;6.90;54.90
1958;DHT22;979;51.076;13.748;2023-02-28T11:15:33;6.90;55.10
1958;DHT22;979;51.076;13.748;2023-02-28T11:18:21;7.00;55.40
1958;DHT22;979;51.076;13.748;2023-02-28T11:20:52;7.20;55.20
1958;DHT22;979;51.076;13.748;2023-02-28T11:23:24;7.20;54.70
1958;DHT22;979;51.076;13.748;2023-02-28T11:25:56;7.10;54.30
1958;DHT22;979;51.076;13.748;2023-02-28T11:28:29;7.10;54.40
1958;DHT22;979;51.076;13.748;2023-02-28T11:31:08;7.10;54.50
1958;DHT22;979;51.076;13.748;2023-02-28T11:33:45;7.10;54.10
1958;DHT22;979;51.076;13.748;2023-02-28T11:36:19;7.00;53.60
1958;DHT22;979;51.076;13.748;2023-02-28T11:38:52;6.90;53.80
1958;DHT22;979;51.076;13.748;2023-02-28T11:44:32;7.00;54.30
1958;DHT22;979;51.076;13.748;2023-02-28T11:47:14;7.00;54.10
1958;DHT22;979;51.076;13.748;2023-02-28T11:49:56;7.20;54.50
1958;DHT22;979;51.076;13.748;2023-02-28T11:52:41;7.10;53.80
1958;DHT22;979;51.076;13.748;2023-02-28T11:55:17;7.30;53.90
1958;DHT22;979;51.076;13.748;2023-02-28T11:58:06;7.40;54.10
1958;DHT22;979;51.076;13.748;2023-02-28T12:00:52;8.10;55.70
1958;DHT22;979;51.076;13.748;2023-02-28T12:03:31;9.30;56.00
1958;DHT22;979;51.076;13.748;2023-02-28T12:06:16;11.10;55.10
1958;DHT22;979;51.076;13.748;2023-02-28T12:09:00;12.40;54.20
1958;DHT22;979;51.076;13.748;2023-02-28T12:11:43;13.60;53.30
1958;DHT22;979;51.076;13.748;2023-02-28T12:17:37;15.10;50.40
1958;DHT22;979;51.076;13.748;2023-02-28T12:20:18;14.90;49.20
1958;DHT22;979;51.076;13.748;2023-02-28T12:23:01;14.20;48.00
1958;DHT22;979;51.076;13.748;2023-02-28T12:25:56;13.70;47.70
1958;DHT22;979;51.076;13.748;2023-02-28T12:28:30;13.60;48.50
1958;DHT22;979;51.076;13.748;2023-02-28T12:31:05;14.30;49.10
1958;DHT22;979;51.076;13.748;2023-02-28T12:33:38;14.70;48.50
1958;DHT22;979;51.076;13.748;2023-02-28T12:36:11;15.50;48.60
1958;DHT22;979;51.076;13.748;2023-02-28T12:38:49;16.10;47.80
1958;DHT22;979;51.076;13.748;2023-02-28T12:41:29;15.90;46.50
1958;DHT22;979;51.076;13.748;2023-02-28T12:44:03;15.20;45.50
1958;DHT22;979;51.076;13.748;2023-02-28T12:46:38;14.40;45.20
1958;DHT22;979;51.076;13.748;2023-02-28T12:49:15;13.80;45.50
1958;DHT22;979;51.076;13.748;2023-02-28T12:51:53;13.60;46.70
1958;DHT22;979;51.076;13.748;2023-02-28T12:54:26;14.50;47.90
1958;DHT22;979;51.076;13.748;2023-02-28T12:57:02;15.30;47.20
1958;DHT22;979;51.076;13.748;2023-02-28T12:59:38;16.40;46.40
1958;DHT22;979;51.076;13.748;2023-02-28T13:02:41;17.20;45.70
1958;DHT22;979;51.076;13.748;2023-02-28T13:05:32;16.60;42.80
1958;DHT22;979;51.076;13.748;2023-02-28T13:10:59;16.10;44.40
1958;DHT22;979;51.076;13.748;2023-02-28T13:13:31;16.70;44.30
1958;DHT22;979;51.076;13.748;2023-02-28T13:16:03;17.10;44.10
1958;DHT22;979;51.076;13.748;2023-02-28T13:18:35;17.80;44.10
1958;DHT22;979;51.076;13.748;2023-02-28T13:21:05;18.70;43.40
1958;DHT22;979;51.076;13.748;2023-02-28T13:23:40;19.50;43.50
1958;DHT22;979;51.076;13.748;2023-02-28T13:26:10;20.30;42.70
1958;DHT22;979;51.076;13.748;2023-02-28T13:29:21;20.90;42.20
1958;DHT22;979;51.076;13.748;2023-02-28T13:38:21;21.20;40.00
1958;DHT22;979;51.076;13.748;2023-02-28T13:40:50;21.70;40.20
1958;DHT22;979;51.076;13.748;2023-02-28T13:43:20;21.90;39.50
1958;DHT22;979;51.076;13.748;2023-02-28T13:46:11;21.00;37.70
1958;DHT22;979;51.076;13.748;2023-02-28T13:48:41;19.20;36.60
1958;DHT22;979;51.076;13.748;2023-02-28T13:51:39;17.60;36.90
1958;DHT22;979;51.076;13.748;2023-02-28T13:54:19;15.70;36.50
1958;DHT22;979;51.076;13.748;2023-02-28T13:57:04;14.50;37.20
1958;DHT22;979;51.076;13.748;2023-02-28T13:59:46;13.50;38.10
1958;DHT22;979;51.076;13.748;2023-02-28T14:02:45;13.60;40.50
1958;DHT22;979;51.076;13.748;2023-02-28T14:05:18;14.60;40.90
1958;DHT22;979;51.076;13.748;2023-02-28T14:07:50;15.80;40.80
1958;DHT22;979;51.076;13.748;2023-02-28T14:10:25;16.50;39.80
1958;DHT22;979;51.076;13.748;2023-02-28T14:16:39;15.30;36.50
1958;DHT22;979;51.076;13.748;2023-02-28T14:19:14;13.90;37.10
1958;DHT22;979;51.076;13.748;2023-02-28T14:22:50;12.80;37.60
1958;DHT22;979;51.076;13.748;2023-02-28T14:25:25;11.70;38.10
1958;DHT22;979;51.076;13.748;2023-02-28T14:28:05;11.00;38.60
1958;DHT22;979;51.076;13.748;2023-02-28T14:31:01;10.60;39.30
1958;DHT22;979;51.076;13.748;2023-02-28T14:33:46;10.20;39.70
1958;DHT22;979;51.076;13.748;2023-02-28T14:36:21;9.90;40.90
1958;DHT22;979;51.076;13.748;2023-02-28T14:38:53;9.60;41.20
1958;DHT22;979;51.076;13.748;2023-02-28T14:41:24;9.40;41.50
1958;DHT22;979;51.076;13.748;2023-02-28T14:43:58;9.30;41.80
1958;DHT22;979;51.076;13.748;2023-02-28T14:46:33;9.20;42.20
1958;DHT22;979;51.076;13.748;2023-02-28T14:49:15;9.10;42.30
1958;DHT22;979;51.076;13.748;2023-02-28T14:51:44;9.00;42.60
1958;DHT22;979;51.076;13.748;2023-02-28T14:54:45;8.90;42.70
1958;DHT22;979;51.076;13.748;2023-02-28T14:57:25;8.80;42.70
1958;DHT22;979;51.076;13.748;2023-02-28T14:59:58;8.50;42.90
1958;DHT22;979;51.076;13.748;2023-02-28T15:02:30;8.30;42.90
1958;DHT22;979;51.076;13.748;2023-02-28T15:05:22;8.20;43.20
1958;DHT22;979;51.076;13.748;2023-02-28T15:08:04;8.10;43.50
1958;DHT22;979;51.076;13.748;2023-02-28T15:10:33;8.00;43.80
1958;DHT22;979;51.076;13.748;2023-02-28T15:13:05;7.80;43.50
1958;DHT22;979;51.076;13.748;2023-02-28T15:15:42;7.70;43.70
1958;DHT22;979;51.076;13.748;2023-02-28T15:18:32;7.30;43.70
1958;DHT22;979;51.076;13.748;2023-02-28T15:21:07;7.70;44.20
1958;DHT22;979;51.076;13.748;2023-02-28T15:23:40;7.50;44.30
1958;DHT22;979;51.076;13.748;2023-02-28T15:26:12;7.40;44.40
1958;DHT22;979;51.076;13.748;2023-02-28T15:28:41;7.30;44.50
1958;DHT22;979;51.076;13.748;2023-02-28T15:31:20;7.00;44.40
1958;DHT22;979;51.076;13.748;2023-02-28T15:33:54;7.20;44.70
1958;DHT22;979;51.076;13.748;2023-02-28T15:36:26;7.30;44.90
1958;DHT22;979;51.076;13.748;2023-02-28T15:38:57;7.00;44.80
1958;DHT22;979;51.076;13.748;2023-02-28T15:41:42;6.90;45.30
1958;DHT22;979;51.076;13.748;2023-02-28T15:44:15;6.80;45.20
1958;DHT22;979;51.076;13.748;2023-02-28T15:46:54;6.90;45.30
1958;DHT22;979;51.076;13.748;2023-02-28T15:49:23;6.80;45.40
1958;DHT22;979;51.076;13.748;2023-02-28T15:51:56;6.80;45.50
1958;DHT22;979;51.076;13.748;2023-02-28T15:54:30;6.80;45.60
1958;DHT22;979;51.076;13.748;2023-02-28T15:57:05;6.80;45.70
1958;DHT22;979;51.076;13.748;2023-02-28T15:59:48;6.70;45.80
1958;DHT22;979;51.076;13.748;2023-02-28T16:02:20;6.70;45.90
1958;DHT22;979;51.076;13.748;2023-02-28T16:05:19;6.60;45.90
1958;DHT22;979;51.076;13.748;2023-02-28T16:07:56;6.50;46.00
1958;DHT22;979;51.076;13.748;2023-02-28T16:10:28;6.40;46.10
1958;DHT22;979;51.076;13.748;2023-02-28T16:12:57;6.40;46.30
1958;DHT22;979;51.076;13.748;2023-02-28T16:15:27;6.30;46.30
1958;DHT22;979;51.076;13.748;2023-02-28T16:17:57;6.40;46.50
1958;DHT22;979;51.076;13.748;2023-02-28T16:20:28;6.30;46.50
1958;DHT22;979;51.076;13.748;2023-02-28T16:22:57;6.20;46.50
1958;DHT22;979;51.076;13.748;2023-02-28T16:25:34;6.20;46.60
1958;DHT22;979;51.076;13.748;2023-02-28T16:28:05;6.20;46.60
1958;DHT22;979;51.076;13.748;2023-02-28T16:30:36;6.10;46.60
1958;DHT22;979;51.076;13.748;2023-02-28T16:33:04;6.10;46.90
1958;DHT22;979;51.076;13.748;2023-02-28T16:35:33;6.10;46.90
1958;DHT22;979;51.076;13.748;2023-02-28T16:38:01;6.00;46.90
1958;DHT22;979;51.076;13.748;2023-02-28T16:40:34;6.00;47.10
1958;DHT22;979;51.076;13.748;2023-02-28T16:43:07;5.90;47.00
1958;DHT22;979;51.076;13.748;2023-02-28T16:45:35;5.90;47.20
1958;DHT22;979;51.076;13.748;2023-02-28T16:48:04;5.80;47.20
1958;DHT22;979;51.076;13.748;2023-02-28T16:50:32;5.80;47.30
1958;DHT22;979;51.076;13.748;2023-02-28T16:53:00;5.80;47.40
1958;DHT22;979;51.076;13.748;2023-02-28T16:55:30;5.70;47.40
1958;DHT22;979;51.076;13.748;2023-02-28T16:58:00;5.70;47.40
1958;DHT22;979;51.076;13.748;2023-02-28T17:00:30;5.60;47.30
1958;DHT22;979;51.076;13.748;2023-02-28T17:02:59;5.70;47.50
1958;DHT22;979;51.076;13.748;2023-02-28T17:05:36;5.40;47.50
1958;DHT22;979;51.076;13.748;2023-02-28T17:08:09;5.50;47.60
1958;DHT22;979;51.076;13.748;2023-02-28T17:10:40;5.30;47.60
1958;DHT22;979;51.076;13.748;2023-02-28T17:13:09;5.30;47.70
1958;DHT22;979;51.076;13.748;2023-02-28T17:15:41;5.30;47.80
1958;DHT22;979;51.076;13.748;2023-02-28T17:18:14;5.20;47.80
1958;DHT22;979;51.076;13.748;2023-02-28T17:20:43;5.30;47.90
1958;DHT22;979;51.076;13.748;2023-02-28T17:23:12;5.00;48.00
1958;DHT22;979;51.076;13.748;2023-02-28T17:25:44;5.00;48.00
1958;DHT22;979;51.076;13.748;2023-02-28T17:28:23;4.90;48.10
1958;DHT22;979;51.076;13.748;2023-02-28T17:30:51;4.70;48.10
1958;DHT22;979;51.076;13.748;2023-02-28T17:33:20;4.80;48.30